Time;durP1;ratioP1;P1;durP2;ratioP2;P2;SDS_P1;SDS_P2;PMS_P1;PMS_P2;Temp;Humidity;BMP_temperature;BMP_pressure;BME280_temperature;BME280_humidity;BME280_pressure;Samples;Min_cycle;Max_cycle;Signal;HPM_P1;HPM_P2
2021/07/29 00:01:43;;;;;;;2.23;2.03;;;;;;;19.61;71.48;100212.38;5031747;28;20411;-80
2021/07/29 00:04:08;;;;;;;4.00;2.40;;;;;;;19.62;71.32;100214.03;5030564;28;20901;-80
2021/07/29 00:06:34;;;;;;;2.38;2.17;;;;;;;19.64;71.34;100209.03;5033453;28;20396;-80
2021/07/29 00:08:59;;;;;;;3.53;2.20;;;;;;;19.65;71.58;100210.66;5012885;28;20418;-80
2021/07/29 00:11:24;;;;;;;3.53;2.07;;;;;;;19.64;71.73;100207.09;5031864;28;20402;-81
2021/07/29 00:13:51;;;;;;;3.43;2.53;;;;;;;19.65;72.12;100210.66;5030137;28;20902;-80
2021/07/29 00:16:17;;;;;;;2.75;2.20;;;;;;;19.66;72.34;100204.00;5033380;28;20391;-80
2021/07/29 00:21:26;;;;;;;2.47;2.22;;;;;;;19.68;72.60;100199.03;5029687;28;20418;-80
2021/07/29 00:23:51;;;;;;;2.23;2.13;;;;;;;19.68;72.30;100194.34;5028467;28;20419;-79
2021/07/29 00:26:17;;;;;;;3.30;2.67;;;;;;;19.68;72.44;100190.78;5032775;28;20406;-80
2021/07/29 00:28:42;;;;;;;5.50;2.50;;;;;;;19.69;72.49;100186.91;5036332;28;20415;-79
2021/07/29 00:31:07;;;;;;;3.08;2.33;;;;;;;19.69;72.54;100195.97;5032281;28;20597;-80
2021/07/29 00:33:32;;;;;;;5.20;2.20;;;;;;;19.67;72.19;100198.22;5028228;28;20484;-80
2021/07/29 00:35:58;;;;;;;2.60;2.40;;;;;;;19.67;72.30;100200.16;5029602;28;20767;-80
2021/07/29 00:38:23;;;;;;;4.27;2.30;;;;;;;19.65;72.33;100194.97;5029583;28;20461;-80
2021/07/29 00:40:49;;;;;;;4.17;2.57;;;;;;;19.62;72.07;100192.84;5032804;28;20391;-80
2021/07/29 00:43:16;;;;;;;6.07;2.38;;;;;;;19.57;71.90;100198.44;5032418;28;20576;-80
2021/07/29 00:45:43;;;;;;;3.15;2.50;;;;;;;19.55;72.00;100188.91;5029010;28;20410;-80
2021/07/29 00:48:10;;;;;;;2.58;2.38;;;;;;;19.53;71.86;100188.38;5031393;28;20453;-80
2021/07/29 00:50:36;;;;;;;3.70;2.55;;;;;;;19.52;71.80;100178.53;5032693;28;20403;-80
2021/07/29 00:53:04;;;;;;;2.63;2.40;;;;;;;19.51;72.00;100179.63;5027647;28;20427;-80
2021/07/29 00:55:30;;;;;;;2.87;2.30;;;;;;;19.52;71.96;100184.03;5029865;28;20480;-80
2021/07/29 00:57:57;;;;;;;4.63;2.40;;;;;;;19.51;71.76;100182.38;5028750;28;20411;-80
2021/07/29 01:00:22;;;;;;;3.13;2.58;;;;;;;19.51;71.97;100174.97;5030874;28;20514;-80
2021/07/29 01:02:48;;;;;;;2.80;2.30;;;;;;;19.51;71.95;100185.97;5030258;28;20948;-80
2021/07/29 01:05:13;;;;;;;2.30;2.10;;;;;;;19.51;72.15;100182.38;5028996;28;20502;-80
2021/07/29 01:07:38;;;;;;;3.20;2.60;;;;;;;19.52;71.77;100182.09;5031034;28;20406;-80
2021/07/29 01:10:05;;;;;;;3.87;2.50;;;;;;;19.50;71.70;100178.81;5031281;28;20407;-79
2021/07/29 01:12:30;;;;;;;3.42;2.30;;;;;;;19.48;71.82;100180.25;5028666;28;20790;-80
2021/07/29 01:14:56;;;;;;;4.23;2.20;;;;;;;19.48;71.86;100177.50;5027740;28;20411;-80
2021/07/29 01:17:21;;;;;;;4.60;2.40;;;;;;;19.47;71.88;100170.38;5029267;28;20763;-80
2021/07/29 01:19:46;;;;;;;6.43;2.70;;;;;;;19.45;71.96;100172.66;5032961;28;20427;-79
2021/07/29 01:22:11;;;;;;;3.20;2.30;;;;;;;19.42;71.92;100176.84;5026347;28;20411;-80
2021/07/29 01:24:37;;;;;;;4.33;2.57;;;;;;;19.41;71.83;100171.63;5027510;28;20935;-80
2021/07/29 01:27:03;;;;;;;3.00;2.50;;;;;;;19.40;72.46;100168.06;5027502;28;20492;-80
2021/07/29 01:29:28;;;;;;;2.50;2.20;;;;;;;19.39;72.37;100171.94;5030395;28;20417;-80
2021/07/29 01:31:53;;;;;;;4.20;2.60;;;;;;;19.36;72.10;100171.72;5028048;28;20434;-80
2021/07/29 01:34:18;;;;;;;3.90;2.50;;;;;;;19.34;72.33;100172.03;5029334;28;20417;-80
2021/07/29 01:36:45;;;;;;;4.40;2.53;;;;;;;19.33;72.33;100170.41;5013507;28;20499;-80
2021/07/29 01:39:10;;;;;;;4.63;2.60;;;;;;;19.32;72.40;100167.97;5031008;28;20415;-80
2021/07/29 01:41:35;;;;;;;2.20;2.10;;;;;;;19.32;72.28;100168.78;5027462;28;20957;-80
2021/07/29 01:44:01;;;;;;;3.55;2.53;;;;;;;19.32;72.27;100170.72;5028798;28;20507;-80
2021/07/29 01:46:26;;;;;;;3.63;2.70;;;;;;;19.29;72.42;100166.66;5028979;28;20436;-80
2021/07/29 01:48:51;;;;;;;2.67;2.17;;;;;;;19.26;72.64;100171.97;5029513;28;20424;-80
2021/07/29 01:51:17;;;;;;;3.13;2.10;;;;;;;19.23;72.53;100170.66;5027171;28;20465;-80
2021/07/29 01:53:42;;;;;;;4.75;2.42;;;;;;;19.23;72.63;100172.59;5026982;28;20407;-80
2021/07/29 01:56:08;;;;;;;2.83;2.63;;;;;;;19.22;73.03;100166.28;5027961;28;20407;-80
2021/07/29 01:58:34;;;;;;;5.43;2.40;;;;;;;19.22;72.95;100168.19;5029769;28;20879;-80
2021/07/29 02:00:59;;;;;;;5.07;2.60;;;;;;;19.21;73.10;100164.63;5030433;28;20406;-80
2021/07/29 02:03:24;;;;;;;4.30;2.47;;;;;;;19.19;73.27;100164.13;5028578;28;20890;-80
2021/07/29 02:05:49;;;;;;;5.50;2.50;;;;;;;19.18;73.45;100163.31;5029226;28;20430;-80
2021/07/29 02:08:15;;;;;;;3.10;2.40;;;;;;;19.18;73.29;100162.50;5011950;28;20411;-80
2021/07/29 02:10:40;;;;;;;4.90;1.87;;;;;;;19.17;73.29;100169.94;5013594;28;20395;-80
2021/07/29 02:13:05;;;;;;;6.00;2.30;;;;;;;19.18;73.23;100163.31;5031720;28;20808;-80
2021/07/29 02:15:31;;;;;;;7.93;2.63;;;;;;;19.20;73.20;100167.72;5038016;28;20462;-80
2021/07/29 02:17:57;;;;;;;3.07;2.30;;;;;;;19.22;73.05;100168.19;5017793;28;20497;-80
2021/07/29 02:20:23;;;;;;;9.55;2.30;;;;;;;19.24;72.24;100164.00;5037544;28;20410;-80
2021/07/29 02:22:49;;;;;;;2.30;2.10;;;;;;;19.26;71.81;100166.47;5033712;28;20437;-80
2021/07/29 02:25:14;;;;;;;4.37;2.47;;;;;;;19.27;71.66;100159.81;5038214;28;20406;-80
2021/07/29 02:27:39;;;;;;;5.97;2.40;;;;;;;19.29;71.40;100152.09;5035486;28;20405;-80
2021/07/29 02:30:05;;;;;;;7.47;2.33;;;;;;;19.29;70.72;100160.34;5036215;28;20430;-80
2021/07/29 02:32:31;;;;;;;3.63;2.40;;;;;;;19.30;70.36;100151.78;5029677;28;20419;-80
2021/07/29 02:34:56;;;;;;;5.43;2.95;;;;;;;19.31;70.32;100149.84;5036905;28;20534;-80
2021/07/29 02:37:22;;;;;;;3.80;2.67;;;;;;;19.29;70.07;100150.19;5029860;28;20964;-80
2021/07/29 02:39:48;;;;;;;4.45;2.58;;;;;;;19.30;70.00;100149.03;5018565;28;20410;-80
2021/07/29 02:42:13;;;;;;;5.05;2.60;;;;;;;19.30;69.74;100151.00;5033392;28;22771;-80
2021/07/29 02:44:39;;;;;;;5.57;2.80;;;;;;;19.31;69.98;100158.09;5034859;28;20412;-80
2021/07/29 02:47:05;;;;;;;2.50;2.30;;;;;;;19.31;70.24;100161.66;5037040;28;20406;-80
2021/07/29 02:49:30;;;;;;;3.30;2.43;;;;;;;19.32;69.97;100155.06;5034639;28;20449;-80
2021/07/29 02:51:56;;;;;;;4.90;2.10;;;;;;;19.33;70.06;100153.91;5033679;28;20441;-79
2021/07/29 02:54:21;;;;;;;3.47;2.17;;;;;;;19.32;69.95;100151.47;5013606;28;20746;-80
2021/07/29 02:56:46;;;;;;;10.60;2.83;;;;;;;19.33;70.09;100159.41;5036383;28;21019;-80
2021/07/29 02:59:11;;;;;;;4.03;2.40;;;;;;;19.33;70.66;100162.16;5033854;28;20430;-80
2021/07/29 03:01:37;;;;;;;3.20;2.10;;;;;;;19.32;70.88;100166.03;5035532;28;20424;-80
2021/07/29 03:04:02;;;;;;;3.60;2.90;;;;;;;19.32;70.31;100171.53;5034539;28;20414;-80
2021/07/29 03:06:27;;;;;;;4.18;2.22;;;;;;;19.34;70.40;100172.03;5037493;28;20387;-80
2021/07/29 03:08:53;;;;;;;2.90;2.70;;;;;;;19.36;70.33;100167.06;5036003;28;20418;-79
2021/07/29 03:11:19;;;;;;;2.50;2.33;;;;;;;19.37;70.73;100170.59;5019150;28;20411;-80
2021/07/29 03:13:44;;;;;;;3.20;2.90;;;;;;;19.37;70.77;100171.41;5034406;28;20446;-80
2021/07/29 03:16:09;;;;;;;2.50;2.23;;;;;;;19.40;71.20;100178.22;5032643;28;20897;-81
2021/07/29 03:18:34;;;;;;;2.40;2.27;;;;;;;19.37;71.28;100174.16;5046590;28;20413;-80
2021/07/29 03:21:00;;;;;;;2.90;2.33;;;;;;;19.36;72.01;100172.56;5032274;28;20411;-80
2021/07/29 03:23:26;;;;;;;3.43;2.40;;;;;;;19.36;71.91;100182.72;5023359;28;20660;-80
2021/07/29 03:25:54;;;;;;;3.58;2.45;;;;;;;19.36;71.59;100179.97;5019027;28;20447;-80
2021/07/29 03:28:20;;;;;;;2.65;2.45;;;;;;;19.37;71.54;100176.09;5020959;28;21161;-80
2021/07/29 03:30:46;;;;;;;3.22;2.65;;;;;;;19.38;71.50;100183.22;5019950;28;20446;-79
2021/07/29 03:33:11;;;;;;;2.65;2.20;;;;;;;19.32;71.67;100177.03;5022297;28;20490;-79
2021/07/29 03:35:38;;;;;;;2.90;2.70;;;;;;;19.25;71.67;100179.38;5017718;28;20411;-79
2021/07/29 03:38:04;;;;;;;4.03;3.08;;;;;;;19.27;71.82;100179.88;5020106;28;20423;-79
2021/07/29 03:40:29;;;;;;;4.95;2.78;;;;;;;19.28;71.93;100184.25;5019176;28;20422;-79
2021/07/29 03:42:56;;;;;;;3.07;2.80;;;;;;;19.24;72.27;100191.47;5023737;28;20406;-79
2021/07/29 03:45:21;;;;;;;7.97;3.83;;;;;;;19.24;72.25;100191.47;5019222;28;20407;-79
2021/07/29 03:47:46;;;;;;;5.17;2.47;;;;;;;19.27;72.10;100192.78;5019866;28;20945;-80
2021/07/29 03:50:12;;;;;;;5.47;3.60;;;;;;;19.27;72.37;100193.63;5018924;28;20406;-79
2021/07/29 03:52:37;;;;;;;4.93;2.80;;;;;;;19.31;72.30;100202.88;5015980;28;22330;-80
2021/07/29 03:55:07;;;;;;;3.83;2.57;;;;;;;19.31;72.35;100204.81;5014880;28;20413;-80
2021/07/29 03:57:32;;;;;;;3.13;2.92;;;;;;;19.26;72.50;100203.00;5019087;28;20979;-80
2021/07/29 03:59:57;;;;;;;3.73;2.40;;;;;;;19.27;72.58;100204.59;5017750;28;20435;-80
2021/07/29 04:02:23;;;;;;;2.97;2.70;;;;;;;19.27;72.63;100203.78;5020391;28;20464;-81
2021/07/29 04:04:48;;;;;;;3.17;2.83;;;;;;;19.25;72.93;100195.88;5022981;28;20752;-80
2021/07/29 04:07:13;;;;;;;4.13;3.00;;;;;;;19.25;72.87;100195.06;5019099;28;20423;-81
2021/07/29 04:09:38;;;;;;;3.33;2.70;;;;;;;19.31;72.97;100202.88;5017977;28;20415;-80
2021/07/29 04:12:04;;;;;;;3.15;2.72;;;;;;;19.33;72.97;100206.13;5017293;28;20450;-80
2021/07/29 04:14:29;;;;;;;3.97;2.73;;;;;;;19.33;72.81;100203.38;5017494;28;20456;-81
2021/07/29 04:16:55;;;;;;;2.87;2.63;;;;;;;19.31;73.10;100205.63;5020173;28;21063;-80
2021/07/29 04:19:21;;;;;;;3.85;3.47;;;;;;;19.31;73.50;100202.06;5017724;28;20437;-80
2021/07/29 04:21:47;;;;;;;4.77;2.87;;;;;;;19.34;73.42;100201.44;5029020;28;20432;-80
2021/07/29 04:24:13;;;;;;;5.00;3.00;;;;;;;19.35;73.48;100209.38;5030052;28;20426;-80
2021/07/29 04:26:40;;;;;;;3.80;3.50;;;;;;;19.32;73.59;100220.19;5035248;28;20401;-80
2021/07/29 04:29:06;;;;;;;3.05;2.80;;;;;;;19.31;73.52;100213.88;5037313;28;20418;-80
2021/07/29 04:31:31;;;;;;;3.17;2.90;;;;;;;19.29;73.47;100205.13;5028545;28;20410;-80
2021/07/29 04:33:57;;;;;;;5.47;3.20;;;;;;;19.28;73.62;100211.72;5030738;28;20874;-80
2021/07/29 04:36:22;;;;;;;5.13;3.10;;;;;;;19.29;73.69;100216.13;5032556;28;20391;-80
2021/07/29 04:38:47;;;;;;;4.82;3.00;;;;;;;19.32;73.48;100218.25;5031366;28;20821;-80
2021/07/29 04:41:13;;;;;;;2.80;2.60;;;;;;;19.33;73.52;100221.81;5028356;28;20439;-80
2021/07/29 04:43:38;;;;;;;3.27;3.00;;;;;;;19.34;73.65;100221.47;5019887;28;20418;-80
2021/07/29 04:46:04;;;;;;;4.10;3.00;;;;;;;19.34;73.57;100221.47;5032253;28;20793;-80
2021/07/29 04:48:32;;;;;;;3.85;3.10;;;;;;;19.35;73.71;100225.06;5031099;28;20570;-80
2021/07/29 04:51:04;;;;;;;5.78;3.05;;;;;;;19.35;73.72;100231.38;5031164;28;20427;-81
2021/07/29 04:53:31;;;;;;;5.10;3.20;;;;;;;19.33;73.61;100235.56;5029586;28;20415;-80
2021/07/29 04:55:56;;;;;;;3.58;3.28;;;;;;;19.33;73.66;100228.09;5030871;28;20407;-80
2021/07/29 04:58:22;;;;;;;3.30;2.87;;;;;;;19.32;73.63;100226.50;5032483;28;20467;-81
2021/07/29 05:00:47;;;;;;;3.40;3.10;;;;;;;19.32;73.82;100234.72;5008724;28;20422;-80
2021/07/29 05:03:12;;;;;;;4.70;3.00;;;;;;;19.27;73.64;100223.84;5018394;28;20436;-80
2021/07/29 05:05:38;;;;;;;3.15;2.95;;;;;;;19.34;73.40;100232.47;5014022;28;20794;-80
2021/07/29 05:08:03;;;;;;;3.97;3.00;;;;;;;19.34;73.46;100235.22;5021474;28;21020;-80
2021/07/29 05:10:29;;;;;;;3.70;2.97;;;;;;;19.32;73.30;100236.66;5013151;28;20430;-80
2021/07/29 05:12:55;;;;;;;3.67;3.30;;;;;;;19.29;73.65;100237.28;5017152;28;20920;-80
2021/07/29 05:15:20;;;;;;;4.35;3.15;;;;;;;19.31;73.33;100230.34;5026822;28;20411;-80
2021/07/29 05:17:45;;;;;;;7.03;3.17;;;;;;;19.33;73.06;100239.09;5026599;28;20901;-80
2021/07/29 05:20:11;;;;;;;3.97;2.93;;;;;;;19.32;73.39;100240.22;5026368;28;20445;-80
2021/07/29 05:22:36;;;;;;;3.80;3.00;;;;;;;19.38;73.36;100238.16;5023958;28;20423;-80
2021/07/29 05:25:02;;;;;;;3.30;3.03;;;;;;;19.40;73.08;100244.16;5029718;28;20813;-80
2021/07/29 05:27:27;;;;;;;3.17;2.88;;;;;;;19.45;73.06;100235.84;5031066;28;20422;-80
2021/07/29 05:29:53;;;;;;;4.37;3.30;;;;;;;19.48;72.77;100243.47;5011615;28;20489;-80
2021/07/29 05:32:18;;;;;;;3.87;2.90;;;;;;;19.46;72.66;100232.78;5011440;28;20429;-79
2021/07/29 05:34:43;;;;;;;3.30;3.00;;;;;;;19.48;72.62;100237.97;5007718;28;20863;-80
2021/07/29 05:37:09;;;;;;;3.73;3.30;;;;;;;19.48;72.63;100241.53;5008931;28;20648;-80
2021/07/29 05:39:34;;;;;;;3.43;2.80;;;;;;;19.48;72.73;100237.97;5011328;28;20518;-80
2021/07/29 05:42:01;;;;;;;4.07;2.87;;;;;;;19.48;72.72;100246.22;5016119;28;20902;-79
2021/07/29 05:44:26;;;;;;;3.58;3.00;;;;;;;19.53;72.54;100241.41;5015970;28;20415;-78
2021/07/29 05:46:51;;;;;;;4.23;3.07;;;;;;;19.53;72.61;100244.16;5015943;28;20403;-78
2021/07/29 05:49:17;;;;;;;3.40;3.10;;;;;;;19.57;72.30;100244.38;5016341;28;20574;-79
2021/07/29 05:51:42;;;;;;;4.50;2.60;;;;;;;19.59;72.56;100253.91;5018130;28;20413;-77
2021/07/29 05:54:07;;;;;;;5.30;3.20;;;;;;;19.56;72.50;100257.28;5017452;28;22620;-79
2021/07/29 05:56:32;;;;;;;3.27;3.00;;;;;;;19.58;72.40;100251.50;5018691;28;20442;-79
2021/07/29 05:58:58;;;;;;;4.00;2.90;;;;;;;19.63;72.06;100249.44;5021067;28;20898;-78
2021/07/29 06:01:23;;;;;;;3.63;2.80;;;;;;;19.71;71.76;100255.31;5018715;28;20419;-78
2021/07/29 06:03:48;;;;;;;5.77;3.30;;;;;;;19.76;71.58;100257.97;5018749;28;20421;-78
2021/07/29 06:06:14;;;;;;;3.23;2.90;;;;;;;19.78;71.08;100262.03;5017589;28;20422;-77
2021/07/29 06:08:39;;;;;;;4.40;2.83;;;;;;;19.83;71.00;100263.84;5019537;28;20419;-77
2021/07/29 06:11:05;;;;;;;3.30;3.00;;;;;;;19.83;71.00;100269.34;5014328;28;20421;-78
2021/07/29 06:13:33;;;;;;;2.80;2.70;;;;;;;19.82;71.10;100271.28;5016671;28;20419;-78
2021/07/29 06:16:02;;;;;;;3.17;2.40;;;;;;;19.85;70.72;100272.59;5015817;28;20399;-78
2021/07/29 06:18:27;;;;;;;3.53;3.17;;;;;;;19.86;70.22;100272.28;5013679;28;20771;-78
2021/07/29 06:20:52;;;;;;;6.80;2.73;;;;;;;19.87;70.10;100276.66;5019031;28;20805;-79
2021/07/29 06:23:17;;;;;;;8.17;3.03;;;;;;;19.81;69.47;100279.84;5016758;28;20410;-78
2021/07/29 06:25:42;;;;;;;2.77;2.50;;;;;;;19.79;68.91;100279.34;5017957;28;20423;-79
2021/07/29 06:28:12;;;;;;;4.65;2.47;;;;;;;19.82;68.99;100278.72;5019009;28;20890;-79
2021/07/29 06:30:38;;;;;;;3.47;2.42;;;;;;;19.86;68.18;100274.22;5017499;28;20419;-80
2021/07/29 06:33:03;;;;;;;2.70;2.47;;;;;;;19.99;67.87;100282.41;5017987;28;20453;-78
2021/07/29 06:35:28;;;;;;;4.03;2.17;;;;;;;20.08;67.81;100283.31;5018250;28;20407;-79
2021/07/29 06:37:54;;;;;;;2.40;2.20;;;;;;;20.13;66.95;100287.88;5017958;28;20489;-78
2021/07/29 06:40:20;;;;;;;2.97;2.13;;;;;;;20.10;66.27;100281.06;5016298;28;20913;-78
2021/07/29 06:42:45;;;;;;;2.47;2.17;;;;;;;20.04;65.62;100293.31;5021266;28;20498;-79
2021/07/29 06:45:11;;;;;;;2.03;1.93;;;;;;;20.04;64.93;100285.06;5015224;28;20426;-79
2021/07/29 06:47:36;;;;;;;2.53;2.22;;;;;;;20.07;65.37;100292.69;4999753;28;20419;-79
2021/07/29 06:50:04;;;;;;;3.37;1.87;;;;;;;20.04;65.04;100290.56;5012091;28;20394;-78
2021/07/29 06:52:29;;;;;;;3.95;2.40;;;;;;;20.04;63.94;100289.75;5014372;28;20438;-78
2021/07/29 06:54:55;;;;;;;1.97;1.87;;;;;;;20.01;64.11;100293.94;5012144;28;20410;-78
2021/07/29 06:57:20;;;;;;;3.47;2.13;;;;;;;20.08;63.59;100302.56;5014196;28;20560;-78
2021/07/29 06:59:51;;;;;;;4.10;2.10;;;;;;;20.13;63.60;100296.13;5018373;28;20465;-78
2021/07/29 07:02:19;;;;;;;1.93;1.73;;;;;;;20.14;62.51;100301.31;5018281;28;20429;-78
2021/07/29 07:04:45;;;;;;;2.15;1.95;;;;;;;20.23;61.16;100301.38;5021344;28;20770;-78
2021/07/29 07:07:16;;;;;;;4.43;2.10;;;;;;;20.24;60.07;100310.44;5019998;28;20414;-78
2021/07/29 07:09:42;;;;;;;2.22;2.03;;;;;;;20.21;60.48;100314.66;5016406;28;20423;-78
2021/07/29 07:12:07;;;;;;;2.60;1.90;;;;;;;20.24;60.56;100310.44;5015953;28;20465;-77
2021/07/29 07:14:33;;;;;;;5.25;2.25;;;;;;;20.24;60.25;100311.28;5020471;28;20770;-78
2021/07/29 07:16:58;;;;;;;2.77;2.10;;;;;;;20.28;60.71;100304.06;5020219;28;21070;-76
2021/07/29 07:19:23;;;;;;;1.70;1.60;;;;;;;20.41;60.42;100300.41;5019558;28;20509;-77
2021/07/29 07:21:48;;;;;;;3.00;1.97;;;;;;;20.47;60.03;100298.34;5016409;28;20790;-77
2021/07/29 07:24:14;;;;;;;3.33;2.08;;;;;;;20.45;60.43;100311.63;5019044;28;20427;-79
2021/07/29 07:26:39;;;;;;;3.83;1.77;;;;;;;20.46;60.74;100297.53;5021381;28;20473;-79
2021/07/29 07:29:06;;;;;;;6.22;2.20;;;;;;;20.50;61.09;100300.47;5019994;28;21305;-79
2021/07/29 07:31:31;;;;;;;2.33;1.80;;;;;;;20.45;60.64;100300.59;5020829;28;20460;-79
2021/07/29 07:33:58;;;;;;;2.13;1.50;;;;;;;20.55;60.05;100314.91;5021518;28;20502;-79
2021/07/29 07:36:24;;;;;;;3.38;2.28;;;;;;;20.65;59.84;100316.56;5020314;28;20403;-78
2021/07/29 07:38:52;;;;;;;2.72;2.25;;;;;;;20.76;58.89;100314.38;5021175;28;20422;-79
2021/07/29 07:41:18;;;;;;;2.65;1.80;;;;;;;20.78;58.38;100314.91;5020023;28;20417;-78
2021/07/29 07:43:44;;;;;;;3.17;1.57;;;;;;;20.74;56.83;100314.72;5019269;28;20407;-79
2021/07/29 07:46:09;;;;;;;2.33;1.40;;;;;;;20.81;57.93;100315.06;5020328;28;20411;-79
2021/07/29 07:48:34;;;;;;;2.43;1.63;;;;;;;20.82;56.22;100307.59;5020661;28;20473;-78
2021/07/29 07:51:00;;;;;;;1.60;1.50;;;;;;;20.82;55.77;100307.59;5022451;28;20422;-78
2021/07/29 07:53:27;;;;;;;3.85;1.77;;;;;;;20.80;56.80;100307.13;5021806;28;20407;-78
2021/07/29 07:55:53;;;;;;;2.40;1.60;;;;;;;20.73;56.67;100299.31;5018138;28;20418;-77
2021/07/29 07:58:18;;;;;;;4.55;1.80;;;;;;;20.73;57.52;100295.72;5022222;28;20414;-78
2021/07/29 08:00:44;;;;;;;4.13;1.90;;;;;;;20.76;58.34;100290.41;5021627;28;20473;-77
2021/07/29 08:03:09;;;;;;;3.33;1.80;;;;;;;20.79;58.23;100297.22;5021593;28;20777;-77
2021/07/29 08:05:34;;;;;;;1.97;1.63;;;;;;;20.76;58.00;100293.16;5023243;28;20419;-78
2021/07/29 08:08:00;;;;;;;2.73;1.60;;;;;;;20.74;56.95;100286.34;5021001;28;20496;-77
2021/07/29 08:10:28;;;;;;;2.70;1.85;;;;;;;20.74;56.85;100289.09;5021399;28;20502;-78
2021/07/29 08:12:53;;;;;;;1.67;1.55;;;;;;;20.68;56.74;100293.94;5020460;28;20506;-77
2021/07/29 08:15:18;;;;;;;1.60;1.50;;;;;;;20.65;56.56;100298.13;5004420;28;20758;-78
2021/07/29 08:17:43;;;;;;;3.20;1.40;;;;;;;20.70;57.61;100288.94;5021971;28;20422;-78
2021/07/29 08:20:09;;;;;;;3.97;1.58;;;;;;;20.73;56.70;100287.47;5021624;28;20496;-78
2021/07/29 08:22:34;;;;;;;2.53;1.63;;;;;;;20.77;56.74;100288.47;5019053;28;20401;-78
2021/07/29 08:25:00;;;;;;;2.07;1.80;;;;;;;20.84;57.73;100294.34;4995314;28;20867;-78
2021/07/29 08:27:25;;;;;;;2.30;1.50;;;;;;;20.88;57.01;100296.13;4997467;28;20977;-78
2021/07/29 08:29:50;;;;;;;2.37;1.73;;;;;;;20.98;56.53;100297.78;5017771;28;20426;-78
2021/07/29 08:32:15;;;;;;;4.07;2.00;;;;;;;21.02;56.45;100296.84;5016859;28;20411;-78
2021/07/29 08:34:41;;;;;;;2.87;1.73;;;;;;;21.12;55.61;100299.34;5020256;28;20436;-77
2021/07/29 08:37:06;;;;;;;2.83;2.00;;;;;;;21.16;55.94;100297.59;5019357;28;20935;-78
2021/07/29 08:39:32;;;;;;;2.25;1.70;;;;;;;21.28;56.85;100298.91;4999230;28;20480;-78
2021/07/29 08:41:57;;;;;;;3.10;1.97;;;;;;;21.29;55.88;100297.78;5018638;28;20415;-78
2021/07/29 08:44:22;;;;;;;2.87;1.80;;;;;;;21.32;56.12;100295.19;5020792;28;20782;-77
2021/07/29 08:46:49;;;;;;;1.70;1.60;;;;;;;21.41;55.59;100298.78;5016256;28;20411;-78
2021/07/29 08:49:15;;;;;;;2.40;2.00;;;;;;;21.49;54.58;100294.44;5000978;28;20470;-78
2021/07/29 08:51:41;;;;;;;3.80;2.17;;;;;;;21.51;55.04;100294.91;5014831;28;20510;-79
2021/07/29 08:54:11;;;;;;;3.67;2.05;;;;;;;21.59;54.45;100296.88;5016248;28;20403;-78
2021/07/29 08:56:36;;;;;;;2.90;2.00;;;;;;;21.66;54.16;100300.81;5018048;28;20412;-78
2021/07/29 08:59:01;;;;;;;1.90;1.80;;;;;;;21.71;53.90;100297.06;4999382;28;20823;-78
2021/07/29 09:01:40;;;;;;;1.97;1.80;;;;;;;21.80;53.67;100294.34;5018678;28;20469;-78
2021/07/29 09:04:15;;;;;;;4.90;2.10;;;;;;;21.97;53.62;100302.63;5017867;28;20410;-80
2021/07/29 09:07:00;;;;;;;1.73;1.60;;;;;;;22.20;52.17;100296.63;5017776;28;21013;-78
2021/07/29 09:09:42;;;;;;;2.50;1.63;;;;;;;22.48;52.59;100288.78;5017859;28;20955;-77
2021/07/29 09:12:23;;;;;;;1.70;1.60;;;;;;;22.63;50.89;100292.97;5018821;28;20526;-76
2021/07/29 09:14:50;;;;;;;2.35;1.90;;;;;;;22.73;49.46;100303.69;5017807;28;20417;-76
2021/07/29 09:17:16;;;;;;;1.50;1.40;;;;;;;22.72;47.74;100291.06;5014593;28;20917;-76
2021/07/29 09:19:44;;;;;;;3.53;1.60;;;;;;;22.67;48.50;100305.84;5016444;28;20889;-76
2021/07/29 09:22:12;;;;;;;2.40;1.65;;;;;;;22.53;48.57;100298.84;4998928;28;20411;-77
2021/07/29 09:24:56;;;;;;;1.67;1.58;;;;;;;22.38;48.94;100300.19;5018724;28;20469;-77
2021/07/29 09:27:25;;;;;;;2.20;1.70;;;;;;;22.35;49.22;100300.84;5015713;28;20760;-79
2021/07/29 09:29:50;;;;;;;3.42;1.73;;;;;;;22.41;49.62;100305.06;5017306;28;20767;-80
2021/07/29 09:32:17;;;;;;;2.37;1.67;;;;;;;22.46;49.06;100304.88;5014788;28;20407;-80
2021/07/29 09:34:46;;;;;;;3.83;1.40;;;;;;;22.55;48.04;100299.34;5017804;28;20428;-81
2021/07/29 09:37:12;;;;;;;4.05;2.33;;;;;;;22.75;48.16;100301.44;5018805;28;20403;-81
2021/07/29 09:39:37;;;;;;;2.47;2.28;;;;;;;22.80;49.31;100300.44;5019992;28;20770;-81
2021/07/29 09:42:17;;;;;;;1.67;1.57;;;;;;;22.88;48.97;100291.31;5018567;28;20425;-80
2021/07/29 09:44:45;;;;;;;2.25;2.05;;;;;;;23.13;48.38;100291.19;5020406;28;20423;-80
2021/07/29 09:47:10;;;;;;;2.53;1.85;;;;;;;23.27;48.07;100299.28;5015803;28;20461;-80
2021/07/29 09:49:36;;;;;;;3.93;1.97;;;;;;;23.37;46.92;100292.53;5017274;28;20414;-81
2021/07/29 09:52:03;;;;;;;2.50;1.75;;;;;;;23.20;46.21;100290.69;5013680;28;20419;-81
2021/07/29 09:54:34;;;;;;;1.80;1.50;;;;;;;23.17;46.42;100291.34;5013844;28;20426;-82
2021/07/29 09:56:59;;;;;;;3.80;1.70;;;;;;;23.38;47.21;100297.72;5012143;28;20423;-83
2021/07/29 09:59:24;;;;;;;2.10;1.90;;;;;;;23.73;46.17;100292.84;5012735;28;20438;-81
2021/07/29 10:01:51;;;;;;;2.90;1.77;;;;;;;24.13;45.95;100294.03;4995979;28;20842;-82
2021/07/29 10:04:23;;;;;;;2.00;1.90;;;;;;;24.66;43.69;100289.59;5012265;28;20406;-80
2021/07/29 10:06:56;;;;;;;3.03;2.30;;;;;;;24.83;43.58;100280.31;5011497;28;20450;-81
2021/07/29 10:09:22;;;;;;;2.15;1.75;;;;;;;24.71;43.50;100287.41;5010767;28;20457;-81
2021/07/29 10:11:52;;;;;;;2.38;1.95;;;;;;;25.36;41.85;100288.38;5011391;28;20414;-80
2021/07/29 10:14:50;;;;;;;1.73;1.63;;;;;;;26.18;40.22;100275.09;5014980;28;20419;-85
2021/07/29 10:17:16;;;;;;;1.93;1.77;;;;;;;26.47;39.96;100279.47;5013642;28;20501;-81
2021/07/29 10:20:14;;;;;;;1.93;1.83;;;;;;;26.63;39.24;100274.75;5013490;28;20509;-84
2021/07/29 10:22:40;;;;;;;3.40;1.80;;;;;;;27.81;39.11;100275.31;5013199;28;20402;-80
2021/07/29 10:25:08;;;;;;;2.15;1.92;;;;;;;28.91;35.75;100276.72;5017232;28;20924;-81
2021/07/29 10:27:33;;;;;;;1.85;1.75;;;;;;;28.85;36.50;100279.81;5015741;28;20430;-81
2021/07/29 10:30:20;;;;;;;5.37;2.40;;;;;;;30.78;33.17;100271.75;5018639;28;22841;-81
2021/07/29 10:32:46;;;;;;;2.15;1.90;;;;;;;32.00;29.96;100275.09;5015936;28;20754;-79
2021/07/29 10:35:33;;;;;;;2.72;1.80;;;;;;;30.10;32.27;100274.97;5019867;28;20463;-81
2021/07/29 10:37:58;;;;;;;3.50;1.48;;;;;;;29.06;33.65;100270.19;5020712;28;20416;-83
2021/07/29 10:40:35;;;;;;;1.75;1.65;;;;;;;28.01;36.29;100270.56;5024206;28;20523;-81
2021/07/29 10:43:25;;;;;;;1.90;1.67;;;;;;;27.91;36.51;100273.13;5018024;28;20414;-80
2021/07/29 10:45:52;;;;;;;2.40;1.50;;;;;;;28.04;36.11;100269.84;5016237;28;20905;-81
2021/07/29 10:48:44;;;;;;;2.55;1.63;;;;;;;28.80;34.77;100271.75;5016306;28;20470;-81
2021/07/29 10:51:21;;;;;;;2.45;1.73;;;;;;;28.68;32.85;100279.50;5013971;28;20419;-79
2021/07/29 10:53:48;;;;;;;1.60;1.50;;;;;;;27.57;35.07;100274.75;5013394;28;20881;-80
2021/07/29 10:56:15;;;;;;;2.47;2.03;;;;;;;27.28;37.20;100276.03;5025025;28;20414;-80
2021/07/29 10:58:45;;;;;;;3.25;1.52;;;;;;;27.41;37.21;100268.38;5024583;28;22160;-80
2021/07/29 11:01:11;;;;;;;3.05;1.88;;;;;;;29.79;33.49;100267.75;5024138;28;20472;-80
2021/07/29 11:03:59;;;;;;;3.15;1.40;;;;;;;32.21;29.69;100271.56;5026467;28;20418;-81
2021/07/29 11:06:39;;;;;;;2.03;1.30;;;;;;;33.78;28.05;100268.50;5022108;28;20411;-82
2021/07/29 11:09:18;;;;;;;1.50;1.40;;;;;;;33.77;26.57;100275.34;5022374;28;20422;-80
2021/07/29 11:11:48;;;;;;;2.10;1.30;;;;;;;32.59;27.71;100267.31;5022882;28;20411;-81
2021/07/29 11:14:32;;;;;;;1.63;1.52;;;;;;;31.36;30.90;100271.06;5013744;28;20422;-82
2021/07/29 11:16:59;;;;;;;1.77;1.67;;;;;;;31.56;29.76;100258.44;5024216;28;20426;-80
2021/07/29 11:19:25;;;;;;;6.18;1.70;;;;;;;32.37;29.14;100258.03;5022319;28;20450;-82
2021/07/29 11:22:02;;;;;;;2.10;1.17;;;;;;;33.76;26.29;100256.84;5024337;28;20857;-81
2021/07/29 11:24:28;;;;;;;1.75;1.65;;;;;;;34.28;25.51;100260.72;5023429;28;20876;-80
2021/07/29 11:26:53;;;;;;;2.37;1.50;;;;;;;34.67;24.42;100249.25;5027426;28;20417;-79